SCIE/CCP METAR and TAF weather

Enter ICAO airport designator
Station Type Date Time Source
SCIE METAR 2020/01/18 13:00 UTC NOAA

SCIE 181300Z 23006KT 200V260 9000 NSC 18/13 Q1010


Station Type Date Time Source
SCIE Decoded METAR 2020/01/18 13:00 UTC NOAA

Concepcion, Chile (SCIE) 36-46S 073-03W
Jan 18, 2020 - 08:00 AM EST / 2020.01.18 1300 UTC
Wind: from the SW (230 degrees) at 7 MPH (6 KT) (direction variable):0
Visibility: 5 mile(s):0
Temperature: 64 F (18 C)
Dew Point: 55 F (13 C)
Relative Humidity: 72%
Pressure (altimeter): 29.83 in. Hg (1010 hPa)
ob: SCIE 181300Z 23006KT 200V260 9000 NSC 18/13 Q1010
cycle: 13

Station Type Date Time Source
SCIE TAF 2020/01/18 12:04 UTC NOAA

TAF SCIE 181034Z 1812/1912 08004KT CAVOK TX25/1819Z TN13/1911Z
TEMPO 1812/1813 15004KT
BECMG 1815/1817 22012KT
BECMG 1901/1903 16004KT

Example: see airport list